createdAt,value
2018-03-29T00:00:12.886Z,0
2018-03-29T00:01:12.116Z,0
2018-03-29T00:02:12.893Z,0
2018-03-29T00:03:12.656Z,0
2018-03-29T00:04:27.579Z,0
2018-03-29T00:05:27.349Z,0
2018-03-29T00:06:27.606Z,0
2018-03-29T00:07:12.969Z,0
2018-03-29T00:08:27.378Z,0
2018-03-29T00:09:12.759Z,0
2018-03-29T00:10:12.238Z,0
2018-03-29T00:11:12.763Z,0
2018-03-29T00:12:12.784Z,0
2018-03-29T00:13:27.708Z,0
2018-03-29T00:14:12.808Z,0
2018-03-29T00:15:12.825Z,0
2018-03-29T00:16:13.098Z,0
2018-03-29T00:17:12.592Z,0
2018-03-29T00:18:12.865Z,0
2018-03-29T00:19:12.633Z,0
2018-03-29T00:20:12.896Z,0
2018-03-29T00:21:12.650Z,0
2018-03-29T00:22:42.497Z,0
2018-03-29T00:23:12.937Z,0
2018-03-29T00:24:12.953Z,0
2018-03-29T00:25:12.706Z,0
2018-03-29T00:26:13.240Z,0
2018-03-29T00:27:13.255Z,0
2018-03-29T00:28:13.270Z,0
2018-03-29T00:29:13.292Z,0
2018-03-29T00:30:13.300Z,0
2018-03-29T00:32:13.338Z,0
2018-03-29T00:33:13.348Z,0
2018-03-29T00:34:13.102Z,0
2018-03-29T00:35:13.112Z,0
2018-03-29T00:36:28.041Z,0
2018-03-29T00:37:28.056Z,0
2018-03-29T00:38:13.424Z,0
2018-03-29T00:39:13.434Z,0
2018-03-29T00:40:13.182Z,0
2018-03-29T00:41:13.468Z,0
2018-03-29T00:42:13.473Z,0
2018-03-29T00:43:13.485Z,0
2018-03-29T00:44:28.160Z,0
2018-03-29T00:45:13.520Z,0
2018-03-29T00:46:13.273Z,0
2018-03-29T00:47:27.523Z,0
2018-03-29T00:49:13.583Z,0
2018-03-29T00:50:13.688Z,0
2018-03-29T00:51:28.260Z,0
2018-03-29T00:52:13.615Z,0
2018-03-29T00:54:13.393Z,0
2018-03-29T00:55:13.409Z,0
2018-03-29T00:56:13.413Z,0
2018-03-29T00:57:13.700Z,0
2018-03-29T00:58:13.701Z,0
2018-03-29T00:59:13.725Z,0
2018-03-29T01:00:13.479Z,0
2018-03-29T01:01:13.489Z,0
2018-03-29T01:02:13.505Z,0
2018-03-29T01:03:13.775Z,0
2018-03-29T01:04:13.531Z,0
2018-03-29T01:05:13.802Z,0
2018-03-29T01:06:13.926Z,0
2018-03-29T01:07:13.838Z,0
2018-03-29T01:08:13.591Z,0
2018-03-29T01:09:28.000Z,0
2018-03-29T01:10:13.879Z,0
2018-03-29T01:11:13.376Z,0
2018-03-29T01:12:13.912Z,0
2018-03-29T01:13:13.935Z,0
2018-03-29T01:14:13.679Z,0
2018-03-29T01:15:13.692Z,0
2018-03-29T01:16:28.675Z,0
2018-03-29T01:17:13.458Z,0
2018-03-29T01:18:13.479Z,0
2018-03-29T01:19:13.538Z,0
2018-03-29T01:20:13.766Z,0
2018-03-29T01:21:14.041Z,0
2018-03-29T01:22:13.794Z,0
2018-03-29T01:23:13.558Z,0
2018-03-29T01:24:28.490Z,0
2018-03-29T01:25:43.512Z,0
2018-03-29T01:26:28.509Z,0
2018-03-29T01:27:28.267Z,0
2018-03-29T01:29:13.911Z,0
2018-03-29T01:30:13.914Z,0
2018-03-29T01:31:14.195Z,0
2018-03-29T01:32:13.937Z,0
2018-03-29T01:33:14.271Z,0
2018-03-29T01:35:13.990Z,0
2018-03-29T01:36:14.001Z,0
2018-03-29T01:37:14.273Z,0
2018-03-29T01:38:14.284Z,0
2018-03-29T01:39:14.326Z,0
2018-03-29T01:40:14.058Z,0
2018-03-29T01:41:28.731Z,0
2018-03-29T01:42:14.348Z,0
2018-03-29T01:43:29.010Z,0
2018-03-29T01:44:13.863Z,0
2018-03-29T01:46:14.152Z,0
2018-03-29T01:47:13.642Z,0
2018-03-29T01:48:14.170Z,0
2018-03-29T01:49:14.446Z,0
2018-03-29T01:50:13.937Z,0
2018-03-29T01:51:14.486Z,0
2018-03-29T01:52:28.891Z,0
2018-03-29T01:53:14.245Z,0
2018-03-29T01:54:14.270Z,0
2018-03-29T01:55:29.193Z,0
2018-03-29T01:56:14.286Z,0
2018-03-29T01:57:29.218Z,0
2018-03-29T01:58:28.977Z,0
2018-03-29T01:59:14.595Z,0
2018-03-29T02:00:29.000Z,0
2018-03-29T02:01:29.279Z,0
2018-03-29T02:02:14.634Z,0
2018-03-29T02:03:14.649Z,0
2018-03-29T02:05:14.417Z,0
2018-03-29T02:06:14.711Z,0
2018-03-29T02:07:14.704Z,0
2018-03-29T02:08:14.734Z,0
2018-03-29T02:09:14.740Z,0
2018-03-29T02:10:29.425Z,0
2018-03-29T02:11:14.774Z,0
2018-03-29T02:12:29.179Z,0
2018-03-29T02:13:29.453Z,0
2018-03-29T02:14:29.220Z,0
2018-03-29T02:15:14.830Z,0
2018-03-29T02:16:14.324Z,0
2018-03-29T02:17:14.603Z,0
2018-03-29T02:18:14.612Z,0
2018-03-29T02:19:14.369Z,0
2018-03-29T02:20:29.306Z,0
2018-03-29T02:21:14.919Z,0
2018-03-29T02:22:28.812Z,0
2018-03-29T02:23:14.684Z,0
2018-03-29T02:24:14.700Z,0
2018-03-29T02:25:14.981Z,0
2018-03-29T02:26:29.647Z,0
2018-03-29T02:27:14.568Z,0
2018-03-29T02:28:15.022Z,0
2018-03-29T02:29:14.773Z,0
2018-03-29T02:30:14.272Z,0
2018-03-29T02:31:15.067Z,0
2018-03-29T02:32:15.092Z,0
2018-03-29T02:33:14.845Z,0
2018-03-29T02:34:14.593Z,0
2018-03-29T02:35:14.891Z,0
2018-03-29T02:36:15.150Z,0
2018-03-29T02:37:15.173Z,0
2018-03-29T02:38:29.579Z,0
2018-03-29T02:39:15.187Z,0
2018-03-29T02:40:14.943Z,0
2018-03-29T02:42:29.935Z,0
2018-03-29T02:43:15.252Z,0
2018-03-29T02:44:29.916Z,0
2018-03-29T02:45:15.032Z,0
2018-03-29T02:46:29.692Z,0
2018-03-29T02:47:15.304Z,0
2018-03-29T02:48:15.328Z,0
2018-03-29T02:49:15.073Z,0
2018-03-29T02:50:15.096Z,0
2018-03-29T02:53:15.418Z,0
2018-03-29T02:54:14.904Z,0
2018-03-29T02:55:15.431Z,0
2018-03-29T02:56:15.224Z,0
2018-03-29T02:57:15.202Z,0
2018-03-29T02:58:29.903Z,0
2018-03-29T02:59:15.502Z,0
2018-03-29T03:00:30.165Z,0
2018-03-29T03:01:15.522Z,0
2018-03-29T03:02:15.287Z,0
2018-03-29T03:03:15.295Z,0
2018-03-29T03:04:29.444Z,0
2018-03-29T03:05:15.573Z,0
2018-03-29T03:06:29.999Z,0
2018-03-29T03:07:15.619Z,0
2018-03-29T03:08:15.430Z,0
2018-03-29T03:09:15.117Z,0
2018-03-29T03:10:15.760Z,0
2018-03-29T03:11:15.683Z,0
2018-03-29T03:12:15.160Z,0
2018-03-29T03:13:15.430Z,0
2018-03-29T03:14:15.203Z,0
2018-03-29T03:15:15.210Z,0
2018-03-29T03:17:15.502Z,0
2018-03-29T03:18:30.169Z,0
2018-03-29T03:19:15.009Z,0
2018-03-29T03:20:15.804Z,0
2018-03-29T03:22:15.314Z,0
2018-03-29T03:23:15.430Z,0
2018-03-29T03:24:15.345Z,0
2018-03-29T03:25:30.282Z,0
2018-03-29T03:26:15.905Z,0
2018-03-29T03:27:30.574Z,0
2018-03-29T03:28:15.676Z,0
2018-03-29T03:29:15.426Z,0
2018-03-29T03:30:15.966Z,0
2018-03-29T03:31:15.985Z,0
2018-03-29T03:32:30.648Z,0
2018-03-29T03:33:16.002Z,0
2018-03-29T03:34:30.420Z,0
2018-03-29T03:35:16.034Z,0
2018-03-29T03:36:16.052Z,0
2018-03-29T03:37:15.959Z,0
2018-03-29T03:38:15.816Z,0
2018-03-29T03:39:16.099Z,0
2018-03-29T03:40:16.112Z,0
2018-03-29T03:41:16.123Z,0
2018-03-29T03:42:16.144Z,0
2018-03-29T03:43:15.639Z,0
2018-03-29T03:44:16.176Z,0
2018-03-29T03:45:16.187Z,0
2018-03-29T03:46:16.214Z,0
2018-03-29T03:47:30.617Z,0
2018-03-29T03:48:16.239Z,0
2018-03-29T03:49:16.303Z,0
2018-03-29T03:50:16.006Z,0
2018-03-29T03:51:16.021Z,0
2018-03-29T03:52:16.301Z,0
2018-03-29T03:53:30.973Z,0
2018-03-29T03:54:30.988Z,0
2018-03-29T03:55:15.824Z,0
2018-03-29T03:56:16.361Z,0
2018-03-29T03:57:16.119Z,0
2018-03-29T03:58:16.139Z,0
2018-03-29T03:59:16.171Z,0
2018-03-29T04:00:30.820Z,0
2018-03-29T04:01:31.102Z,0
2018-03-29T04:02:15.678Z,0
2018-03-29T04:03:16.472Z,0
2018-03-29T04:04:30.884Z,0
2018-03-29T04:05:16.500Z,0
2018-03-29T04:06:16.266Z,0
2018-03-29T04:08:16.566Z,0
2018-03-29T04:09:16.307Z,0
2018-03-29T04:10:16.577Z,0
2018-03-29T04:11:31.260Z,0
2018-03-29T04:12:16.096Z,0
2018-03-29T04:13:16.365Z,0
2018-03-29T04:14:31.094Z,0
2018-03-29T04:15:16.660Z,0
2018-03-29T04:16:16.411Z,0
2018-03-29T04:17:16.686Z,0
2018-03-29T04:18:31.359Z,0
2018-03-29T04:19:31.385Z,0
2018-03-29T04:20:16.748Z,0
2018-03-29T04:21:16.751Z,0
2018-03-29T04:22:16.771Z,0
2018-03-29T04:23:16.529Z,0
2018-03-29T04:24:16.804Z,0
2018-03-29T04:25:16.553Z,0
2018-03-29T04:26:31.226Z,0
2018-03-29T04:27:16.858Z,0
2018-03-29T04:28:16.866Z,0
2018-03-29T04:29:16.876Z,0
2018-03-29T04:30:31.554Z,0
2018-03-29T04:31:16.915Z,0
2018-03-29T04:32:16.668Z,0
2018-03-29T04:33:31.342Z,0
2018-03-29T04:34:16.953Z,0
2018-03-29T04:35:31.111Z,0
2018-03-29T04:36:16.727Z,0
2018-03-29T04:37:16.743Z,0
2018-03-29T04:38:17.032Z,0
2018-03-29T04:39:16.515Z,0
2018-03-29T04:40:17.054Z,0
2018-03-29T04:41:16.806Z,0
2018-03-29T04:42:16.304Z,0
2018-03-29T04:43:16.838Z,0
2018-03-29T04:44:16.854Z,0
2018-03-29T04:45:31.526Z,0
2018-03-29T04:46:17.143Z,0
2018-03-29T04:47:16.910Z,0
2018-03-29T04:48:31.836Z,0
2018-03-29T04:49:16.994Z,0
2018-03-29T04:50:16.996Z,0
2018-03-29T04:51:46.537Z,0
2018-03-29T04:52:16.719Z,0
2018-03-29T04:53:17.255Z,0
2018-03-29T04:54:17.008Z,0
2018-03-29T04:55:17.033Z,0
2018-03-29T04:56:17.045Z,0
2018-03-29T04:58:31.990Z,0
2018-03-29T04:59:17.095Z,0
2018-03-29T05:00:17.109Z,0
2018-03-29T05:01:16.911Z,0
2018-03-29T05:02:16.879Z,0
2018-03-29T05:03:16.899Z,0
2018-03-29T05:04:16.913Z,0
2018-03-29T05:05:17.448Z,0
2018-03-29T05:06:32.116Z,0
2018-03-29T05:07:31.621Z,0
2018-03-29T05:08:31.636Z,0
2018-03-29T05:09:17.507Z,0
2018-03-29T05:10:17.271Z,0
2018-03-29T05:11:17.540Z,0
2018-03-29T05:12:32.215Z,0
2018-03-29T05:13:17.612Z,0
2018-03-29T05:14:17.328Z,0
2018-03-29T05:15:17.082Z,0
2018-03-29T05:16:17.105Z,0
2018-03-29T05:17:32.134Z,0
2018-03-29T05:18:17.660Z,0
2018-03-29T05:19:17.413Z,0
2018-03-29T05:20:16.902Z,0
2018-03-29T05:21:32.354Z,0
2018-03-29T05:22:32.387Z,0
2018-03-29T05:24:17.744Z,0
2018-03-29T05:25:17.762Z,0
2018-03-29T05:26:17.780Z,0
2018-03-29T05:28:32.254Z,0
2018-03-29T05:29:32.479Z,0
2018-03-29T05:30:17.836Z,0
2018-03-29T05:31:17.340Z,0
2018-03-29T05:32:17.870Z,0
2018-03-29T05:33:32.547Z,0
2018-03-29T05:34:32.560Z,0
2018-03-29T05:35:32.576Z,0
2018-03-29T05:36:32.595Z,0
2018-03-29T05:37:17.954Z,0
2018-03-29T05:38:17.965Z,0
2018-03-29T05:39:18.130Z,0
2018-03-29T05:40:18.081Z,0
2018-03-29T05:41:18.013Z,0
2018-03-29T05:42:32.169Z,5
2018-03-29T05:43:18.050Z,5
2018-03-29T05:44:18.065Z,5
2018-03-29T05:45:18.120Z,5
2018-03-29T05:46:17.834Z,5
2018-03-29T05:47:32.771Z,5
2018-03-29T05:48:17.866Z,5
2018-03-29T05:49:17.626Z,10
2018-03-29T05:50:18.188Z,10
2018-03-29T05:51:17.917Z,10
2018-03-29T05:52:32.853Z,10
2018-03-29T05:53:18.222Z,10
2018-03-29T05:54:32.875Z,10
2018-03-29T05:55:18.234Z,10
2018-03-29T05:56:18.001Z,10
2018-03-29T05:57:17.489Z,10
2018-03-29T05:58:18.285Z,10
2018-03-29T05:59:18.045Z,10
2018-03-29T06:00:18.314Z,10
2018-03-29T06:01:18.073Z,5
2018-03-29T06:02:18.086Z,5
2018-03-29T06:03:18.307Z,10
2018-03-29T06:04:17.598Z,10
2018-03-29T06:05:17.354Z,10
2018-03-29T06:06:18.408Z,10
2018-03-29T06:07:33.081Z,10
2018-03-29T06:08:18.183Z,10
2018-03-29T06:09:18.463Z,10
2018-03-29T06:10:47.795Z,10
2018-03-29T06:11:18.285Z,10
2018-03-29T06:12:32.648Z,10
2018-03-29T06:13:18.268Z,10
2018-03-29T06:14:18.022Z,10
2018-03-29T06:15:18.557Z,10
2018-03-29T06:16:18.577Z,5
2018-03-29T06:17:32.980Z,10
2018-03-29T06:18:18.342Z,10
2018-03-29T06:19:18.662Z,10
2018-03-29T06:20:18.389Z,10
2018-03-29T06:21:18.129Z,10
2018-03-29T06:22:18.684Z,10
2018-03-29T06:23:18.295Z,10
2018-03-29T06:25:18.194Z,10
2018-03-29T06:26:33.434Z,10
2018-03-29T06:27:18.484Z,10
2018-03-29T06:28:18.767Z,10
2018-03-29T06:29:18.517Z,10
2018-03-29T06:30:18.664Z,10
2018-03-29T06:31:18.810Z,10
2018-03-29T06:32:18.580Z,10
2018-03-29T06:33:18.581Z,10
2018-03-29T06:34:18.858Z,10
2018-03-29T06:35:18.882Z,15
2018-03-29T06:36:33.283Z,15
2018-03-29T06:37:33.563Z,15
2018-03-29T06:38:18.665Z,15
2018-03-29T06:39:18.931Z,15
2018-03-29T06:40:18.957Z,15
2018-03-29T06:41:18.456Z,15
2018-03-29T06:42:33.426Z,15
2018-03-29T06:43:18.743Z,15
2018-03-29T06:44:19.029Z,15
2018-03-29T06:45:18.781Z,15
2018-03-29T06:46:33.711Z,15
2018-03-29T06:47:18.803Z,15
2018-03-29T06:48:18.826Z,15
2018-03-29T06:49:19.098Z,15
2018-03-29T06:52:19.141Z,15
2018-03-29T06:53:19.209Z,15
2018-03-29T06:54:19.172Z,15
2018-03-29T06:55:33.849Z,15
2018-03-29T06:56:18.691Z,15
2018-03-29T06:57:33.983Z,15
2018-03-29T06:58:19.039Z,20
2018-03-29T06:59:19.308Z,20
2018-03-29T07:00:19.066Z,20
2018-03-29T07:02:18.739Z,20
2018-03-29T07:03:33.984Z,20
2018-03-29T07:04:34.002Z,20
2018-03-29T07:05:19.358Z,20
2018-03-29T07:06:33.772Z,20
2018-03-29T07:07:18.864Z,20
2018-03-29T07:08:19.407Z,20
2018-03-29T07:09:33.821Z,20
2018-03-29T07:10:19.447Z,20
2018-03-29T07:11:19.458Z,20
2018-03-29T07:12:19.217Z,20
2018-03-29T07:13:19.497Z,20
2018-03-29T07:14:18.719Z,20
2018-03-29T07:15:19.524Z,20
2018-03-29T07:16:19.531Z,15
2018-03-29T07:17:19.293Z,20
2018-03-29T07:18:19.303Z,20
2018-03-29T07:19:19.327Z,20
2018-03-29T07:20:19.598Z,20
2018-03-29T07:21:34.012Z,20
2018-03-29T07:22:34.033Z,20
2018-03-29T07:23:19.388Z,20
2018-03-29T07:24:19.676Z,20
2018-03-29T07:26:19.432Z,25
2018-03-29T07:27:19.714Z,25
2018-03-29T07:28:19.733Z,25
2018-03-29T07:29:49.055Z,30
2018-03-29T07:30:19.760Z,30
2018-03-29T07:31:34.175Z,25
2018-03-29T07:32:19.535Z,30
2018-03-29T07:33:19.549Z,30
2018-03-29T07:34:19.924Z,30
2018-03-29T07:35:19.584Z,30
2018-03-29T07:36:34.775Z,35
2018-03-29T07:37:19.871Z,35
2018-03-29T07:38:19.632Z,35
2018-03-29T07:39:19.127Z,35
2018-03-29T07:40:19.923Z,40
2018-03-29T07:41:19.936Z,40
2018-03-29T07:42:19.697Z,40
2018-03-29T07:43:19.977Z,40
2018-03-29T07:44:19.548Z,35
2018-03-29T07:45:34.659Z,35
2018-03-29T07:46:19.777Z,35
2018-03-29T07:48:20.058Z,40
2018-03-29T07:49:20.067Z,40
2018-03-29T07:51:19.845Z,45
2018-03-29T07:52:34.774Z,40
2018-03-29T07:53:19.664Z,40
2018-03-29T07:54:19.631Z,40
2018-03-29T07:55:19.910Z,40
2018-03-29T07:56:19.665Z,40
2018-03-29T07:57:19.947Z,45
2018-03-29T07:58:19.959Z,50
2018-03-29T07:59:20.269Z,50
2018-03-29T08:00:19.989Z,45
2018-03-29T08:01:34.922Z,50
2018-03-29T08:02:20.287Z,50
2018-03-29T08:03:20.322Z,45
2018-03-29T08:04:20.331Z,50
2018-03-29T08:05:20.072Z,50
2018-03-29T08:06:20.305Z,50
2018-03-29T08:07:20.379Z,50
2018-03-29T08:08:35.052Z,50
2018-03-29T08:09:20.139Z,45
2018-03-29T08:10:20.159Z,45
2018-03-29T08:11:20.431Z,45
2018-03-29T08:12:20.448Z,50
2018-03-29T08:13:19.944Z,50
2018-03-29T08:14:19.967Z,50
2018-03-29T08:15:19.720Z,45
2018-03-29T08:16:35.228Z,45
2018-03-29T08:17:49.847Z,40
2018-03-29T08:18:20.552Z,40
2018-03-29T08:19:20.319Z,40
2018-03-29T08:21:20.342Z,40
2018-03-29T08:22:20.370Z,35
2018-03-29T08:23:20.114Z,35
2018-03-29T08:24:35.047Z,35
2018-03-29T08:26:20.164Z,40
2018-03-29T08:27:20.742Z,40
2018-03-29T08:28:20.718Z,40
2018-03-29T08:29:20.738Z,45
2018-03-29T08:30:20.498Z,50
2018-03-29T08:31:20.257Z,50
2018-03-29T08:32:35.437Z,50
2018-03-29T08:33:20.857Z,50
2018-03-29T08:34:20.817Z,50
2018-03-29T08:35:35.230Z,50
2018-03-29T08:36:20.849Z,55
2018-03-29T08:38:20.887Z,55
2018-03-29T08:39:35.559Z,50
2018-03-29T08:40:20.398Z,55
2018-03-29T08:41:20.935Z,55
2018-03-29T08:42:20.958Z,60
2018-03-29T08:43:20.969Z,75
2018-03-29T08:44:20.465Z,90
2018-03-29T08:45:21.004Z,75
2018-03-29T08:46:20.770Z,70
2018-03-29T08:47:20.778Z,75
2018-03-29T08:48:21.059Z,95
2018-03-29T08:49:21.084Z,130
2018-03-29T08:50:20.570Z,150
2018-03-29T08:51:21.108Z,140
2018-03-29T08:52:35.788Z,125
2018-03-29T08:53:20.878Z,115
2018-03-29T08:54:21.160Z,95
2018-03-29T08:55:20.651Z,90
2018-03-29T08:56:20.673Z,85
2018-03-29T08:57:20.730Z,95
2018-03-29T08:58:21.222Z,100
2018-03-29T08:59:20.988Z,95
2018-03-29T09:00:21.258Z,90
2018-03-29T09:01:35.932Z,75
2018-03-29T09:02:20.780Z,70
2018-03-29T09:03:21.103Z,90
2018-03-29T09:04:50.645Z,100
2018-03-29T09:05:21.087Z,100
2018-03-29T09:06:21.109Z,95
2018-03-29T09:07:35.523Z,125
2018-03-29T09:09:21.427Z,125
2018-03-29T09:10:21.440Z,125
2018-03-29T09:11:21.450Z,125
2018-03-29T09:12:36.134Z,130
2018-03-29T09:13:21.555Z,130
2018-03-29T09:14:21.504Z,140
2018-03-29T09:15:21.000Z,160
2018-03-29T09:16:21.539Z,190
2018-03-29T09:17:21.557Z,185
2018-03-29T09:18:21.604Z,185
2018-03-29T09:19:21.596Z,190
2018-03-29T09:20:36.280Z,195
2018-03-29T09:21:21.635Z,190
2018-03-29T09:22:21.714Z,190
2018-03-29T09:23:21.666Z,185
2018-03-29T09:24:21.430Z,185
2018-03-29T09:26:21.721Z,220
2018-03-29T09:27:21.903Z,225
2018-03-29T09:28:21.768Z,195
2018-03-29T09:29:36.175Z,175
2018-03-29T09:31:21.311Z,170
2018-03-29T09:32:36.510Z,150
2018-03-29T09:33:21.865Z,185
2018-03-29T09:34:21.884Z,205
2018-03-29T09:35:36.304Z,210
2018-03-29T09:36:51.227Z,295
2018-03-29T09:37:21.418Z,280
2018-03-29T09:38:21.950Z,250
2018-03-29T09:39:21.969Z,220
2018-03-29T09:40:21.996Z,300
2018-03-29T09:41:22.009Z,320
2018-03-29T09:42:21.771Z,325
2018-03-29T09:43:22.056Z,340
2018-03-29T09:44:21.813Z,370
2018-03-29T09:45:22.085Z,300
2018-03-29T09:46:22.112Z,270
2018-03-29T09:47:36.792Z,335
2018-03-29T09:48:21.630Z,360
2018-03-29T09:49:36.831Z,400
2018-03-29T09:50:21.682Z,415
2018-03-29T09:51:22.215Z,295
2018-03-29T09:52:36.629Z,380
2018-03-29T09:53:22.255Z,285
2018-03-29T09:54:22.277Z,225
2018-03-29T09:55:22.310Z,230
2018-03-29T09:56:36.458Z,235
2018-03-29T09:57:22.078Z,245
2018-03-29T09:58:21.846Z,255
2018-03-29T09:59:22.127Z,225
2018-03-29T10:00:22.151Z,205
2018-03-29T10:01:21.913Z,205
2018-03-29T10:02:21.934Z,205
2018-03-29T10:03:21.692Z,215
2018-03-29T10:04:22.238Z,195
2018-03-29T10:05:22.305Z,195
2018-03-29T10:06:22.275Z,225
2018-03-29T10:07:37.224Z,220
2018-03-29T10:08:22.332Z,225
2018-03-29T10:09:22.080Z,205
2018-03-29T10:10:22.414Z,220
2018-03-29T10:11:22.381Z,230
2018-03-29T10:12:22.907Z,265
2018-03-29T10:13:22.681Z,235
2018-03-29T10:14:22.706Z,255
2018-03-29T10:15:22.727Z,220
2018-03-29T10:17:22.248Z,195
2018-03-29T10:18:22.010Z,185
2018-03-29T10:19:22.811Z,165
2018-03-29T10:20:22.568Z,170
2018-03-29T10:21:22.855Z,175
2018-03-29T10:22:22.890Z,180
2018-03-29T10:23:22.631Z,185
2018-03-29T10:24:22.662Z,175
2018-03-29T10:25:22.682Z,160
2018-03-29T10:26:22.989Z,130
2018-03-29T10:27:22.731Z,110
2018-03-29T10:28:22.739Z,100
2018-03-29T10:29:22.761Z,100
2018-03-29T10:30:22.873Z,95
2018-03-29T10:31:37.721Z,95
2018-03-29T10:32:22.822Z,95
2018-03-29T10:33:23.109Z,105
2018-03-29T10:34:22.865Z,115
2018-03-29T10:35:22.633Z,125
2018-03-29T10:36:22.952Z,125
2018-03-29T10:37:22.937Z,130
2018-03-29T10:39:37.989Z,130
2018-03-29T10:40:22.990Z,135
2018-03-29T10:41:23.267Z,130
2018-03-29T10:42:23.283Z,125
2018-03-29T10:43:23.044Z,130
2018-03-29T10:44:22.805Z,135
2018-03-29T10:45:22.876Z,140
2018-03-29T10:46:38.058Z,145
2018-03-29T10:47:23.122Z,145
2018-03-29T10:48:22.640Z,145
2018-03-29T10:49:23.172Z,140
2018-03-29T10:50:23.186Z,140
2018-03-29T10:51:22.959Z,135
2018-03-29T10:52:23.237Z,120
2018-03-29T10:53:23.245Z,115
2018-03-29T10:54:23.268Z,105
2018-03-29T10:55:38.208Z,95
2018-03-29T10:56:37.966Z,95
2018-03-29T10:57:37.992Z,90
2018-03-29T10:58:23.610Z,80
2018-03-29T10:59:23.631Z,70
2018-03-29T11:00:23.652Z,65
2018-03-29T11:01:23.147Z,60
2018-03-29T11:02:23.682Z,70
2018-03-29T11:03:23.846Z,80
2018-03-29T11:04:23.472Z,80
2018-03-29T11:05:38.417Z,70
2018-03-29T11:06:23.247Z,60
2018-03-29T11:07:23.791Z,55
2018-03-29T11:08:23.026Z,50
2018-03-29T11:09:38.479Z,50
2018-03-29T11:10:23.664Z,55
2018-03-29T11:11:53.176Z,55
2018-03-29T11:12:23.896Z,60
2018-03-29T11:13:23.916Z,65
2018-03-29T11:14:23.405Z,65
2018-03-29T11:15:23.949Z,65
2018-03-29T11:16:23.697Z,70
2018-03-29T11:17:23.723Z,75
2018-03-29T11:18:23.480Z,75
2018-03-29T11:19:24.014Z,75
2018-03-29T11:20:38.437Z,70
2018-03-29T11:21:23.792Z,65
2018-03-29T11:22:38.734Z,60
2018-03-29T11:23:23.580Z,55
2018-03-29T11:24:23.593Z,55
2018-03-29T11:25:23.973Z,50
2018-03-29T11:27:38.568Z,55
2018-03-29T11:28:38.843Z,60
2018-03-29T11:29:23.429Z,70
2018-03-29T11:30:24.224Z,85
2018-03-29T11:31:24.258Z,85
2018-03-29T11:32:24.273Z,80
2018-03-29T11:33:24.034Z,75
2018-03-29T11:34:24.319Z,70
2018-03-29T11:35:24.324Z,65
2018-03-29T11:36:24.340Z,55
2018-03-29T11:37:24.368Z,55
2018-03-29T11:38:24.118Z,50
2018-03-29T11:39:24.401Z,50
2018-03-29T11:40:24.159Z,45
2018-03-29T11:41:24.192Z,50
2018-03-29T11:42:39.118Z,50
2018-03-29T11:43:38.872Z,55
2018-03-29T11:44:24.234Z,55
2018-03-29T11:45:24.269Z,55
2018-03-29T11:46:24.273Z,50
2018-03-29T11:48:38.988Z,60
2018-03-29T11:49:24.325Z,70
2018-03-29T11:50:24.395Z,85
2018-03-29T11:51:24.373Z,95
2018-03-29T11:52:24.653Z,95
2018-03-29T11:53:24.142Z,95
2018-03-29T11:54:24.680Z,100
2018-03-29T11:55:24.704Z,105
2018-03-29T11:57:24.476Z,105
2018-03-29T11:58:24.762Z,105
2018-03-29T11:59:39.446Z,115
2018-03-29T12:00:24.794Z,115
2018-03-29T12:01:39.528Z,115
2018-03-29T12:02:24.580Z,115
2018-03-29T12:03:39.513Z,120
2018-03-29T12:04:24.614Z,120
2018-03-29T12:05:24.893Z,120
2018-03-29T12:06:24.967Z,130
2018-03-29T12:07:24.934Z,135
2018-03-29T12:08:24.440Z,140
2018-03-29T12:09:39.642Z,140
2018-03-29T12:10:24.469Z,135
2018-03-29T12:11:39.666Z,130
2018-03-29T12:12:24.249Z,135
2018-03-29T12:13:24.267Z,130
2018-03-29T12:14:39.723Z,120
2018-03-29T12:15:25.087Z,110
2018-03-29T12:16:24.848Z,100
2018-03-29T12:17:25.125Z,95
2018-03-29T12:18:25.170Z,85
2018-03-29T12:20:25.179Z,55
2018-03-29T12:21:39.862Z,50
2018-03-29T12:22:25.228Z,45
2018-03-29T12:23:24.982Z,40
2018-03-29T12:24:25.001Z,35
2018-03-29T12:25:25.084Z,30
2018-03-29T12:26:25.045Z,30
2018-03-29T12:27:24.806Z,35
2018-03-29T12:28:25.334Z,40
2018-03-29T12:29:40.016Z,40
2018-03-29T12:30:54.692Z,45
2018-03-29T12:31:25.654Z,50
2018-03-29T12:32:25.166Z,50
2018-03-29T12:33:25.181Z,50
2018-03-29T12:34:25.197Z,55
2018-03-29T12:35:25.477Z,50
2018-03-29T12:36:40.147Z,50
2018-03-29T12:37:24.990Z,50
2018-03-29T12:38:25.531Z,55
2018-03-29T12:39:25.581Z,50
2018-03-29T12:40:39.969Z,50
2018-03-29T12:41:40.248Z,50
2018-03-29T12:42:25.166Z,45
2018-03-29T12:43:25.622Z,45
2018-03-29T12:44:40.045Z,40
2018-03-29T12:45:25.671Z,40
2018-03-29T12:46:40.479Z,40
2018-03-29T12:47:25.703Z,40
2018-03-29T12:48:25.804Z,35
2018-03-29T12:49:25.744Z,40
2018-03-29T12:50:26.165Z,45
2018-03-29T12:51:25.776Z,50
2018-03-29T12:52:40.194Z,50
2018-03-29T12:53:40.233Z,60
2018-03-29T12:54:25.874Z,70
2018-03-29T12:55:25.857Z,85
2018-03-29T12:56:25.863Z,95
2018-03-29T12:57:25.889Z,110
2018-03-29T12:59:25.923Z,140
2018-03-29T13:00:25.997Z,140
2018-03-29T13:01:25.973Z,140
2018-03-29T13:02:40.637Z,140
2018-03-29T13:03:26.002Z,145
2018-03-29T13:04:26.029Z,150
2018-03-29T13:05:26.038Z,145
2018-03-29T13:06:25.802Z,140
2018-03-29T13:07:26.092Z,140
2018-03-29T13:08:25.837Z,140
2018-03-29T13:09:25.873Z,140
2018-03-29T13:10:26.132Z,135
2018-03-29T13:11:25.896Z,130
2018-03-29T13:12:25.919Z,125
2018-03-29T13:13:25.672Z,120
2018-03-29T13:14:26.210Z,115
2018-03-29T13:15:26.236Z,110
2018-03-29T13:16:40.918Z,115
2018-03-29T13:17:41.035Z,115
2018-03-29T13:19:26.065Z,100
2018-03-29T13:20:40.774Z,95
2018-03-29T13:21:26.350Z,95
2018-03-29T13:22:26.113Z,90
2018-03-29T13:23:26.135Z,90
2018-03-29T13:24:41.065Z,80
2018-03-29T13:25:26.241Z,75
2018-03-29T13:26:41.110Z,70
2018-03-29T13:27:25.689Z,65
2018-03-29T13:28:26.079Z,60
2018-03-29T13:29:25.731Z,60
2018-03-29T13:30:26.529Z,55
2018-03-29T13:31:26.300Z,55
2018-03-29T13:32:26.309Z,55
2018-03-29T13:33:26.330Z,55
2018-03-29T13:35:26.636Z,60
2018-03-29T13:36:26.663Z,60
2018-03-29T13:37:41.059Z,60
2018-03-29T13:38:26.679Z,60
2018-03-29T13:39:26.704Z,60
2018-03-29T13:41:26.484Z,65
2018-03-29T13:42:26.771Z,70
2018-03-29T13:43:41.222Z,75
2018-03-29T13:44:26.282Z,80
2018-03-29T13:45:26.824Z,80
2018-03-29T13:46:26.843Z,85
2018-03-29T13:47:26.864Z,90
2018-03-29T13:48:26.881Z,95
2018-03-29T13:49:41.564Z,100
2018-03-29T13:50:26.662Z,100
2018-03-29T13:52:26.949Z,105
2018-03-29T13:53:26.735Z,105
2018-03-29T13:54:26.736Z,105
2018-03-29T13:55:26.753Z,105
2018-03-29T13:56:27.026Z,110
2018-03-29T13:57:26.807Z,100
2018-03-29T13:58:26.806Z,100
2018-03-29T13:59:27.049Z,100
2018-03-29T14:00:26.858Z,95
2018-03-29T14:01:26.866Z,95
2018-03-29T14:02:27.149Z,95
2018-03-29T14:03:26.393Z,95
2018-03-29T14:04:26.926Z,95
2018-03-29T14:05:56.533Z,90
2018-03-29T14:06:27.226Z,90
2018-03-29T14:07:26.730Z,90
2018-03-29T14:11:27.162Z,85
2018-03-29T14:12:27.086Z,85
2018-03-29T14:13:27.440Z,85
2018-03-29T14:14:27.381Z,85
2018-03-29T14:15:26.901Z,90
2018-03-29T14:16:27.158Z,80
2018-03-29T14:17:27.447Z,80
2018-03-29T14:18:27.197Z,75
2018-03-29T14:19:41.880Z,75
2018-03-29T14:20:27.504Z,75
2018-03-29T14:21:42.179Z,70
2018-03-29T14:22:27.017Z,70
2018-03-29T14:23:27.570Z,65
2018-03-29T14:25:27.332Z,65
2018-03-29T14:26:27.353Z,65
2018-03-29T14:27:27.375Z,65
2018-03-29T14:28:27.653Z,65
2018-03-29T14:29:27.156Z,65
2018-03-29T14:30:27.695Z,65
2018-03-29T14:31:27.191Z,65
2018-03-29T14:32:27.471Z,65
2018-03-29T14:33:27.748Z,65
2018-03-29T14:34:27.681Z,65
2018-03-29T14:35:27.824Z,70
2018-03-29T14:36:27.580Z,75
2018-03-29T14:37:42.513Z,75
2018-03-29T14:38:27.882Z,80
2018-03-29T14:40:28.834Z,85
2018-03-29T14:41:27.997Z,80
2018-03-29T14:42:27.966Z,80
2018-03-29T14:43:28.086Z,80
2018-03-29T14:44:27.456Z,75
2018-03-29T14:45:27.465Z,75
2018-03-29T14:46:28.011Z,70
2018-03-29T14:47:28.020Z,70
2018-03-29T14:48:28.038Z,70
2018-03-29T14:49:27.798Z,65
2018-03-29T14:50:28.091Z,65
2018-03-29T14:51:28.097Z,70
2018-03-29T14:52:42.515Z,70
2018-03-29T14:53:27.879Z,75
2018-03-29T14:54:42.552Z,80
2018-03-29T14:55:42.836Z,85
2018-03-29T14:56:28.194Z,90
2018-03-29T14:57:28.217Z,95
2018-03-29T14:58:28.228Z,100
2018-03-29T14:59:27.995Z,140
2018-03-29T15:00:28.273Z,95
2018-03-29T15:01:27.511Z,115
2018-03-29T15:02:28.309Z,100
2018-03-29T15:03:42.992Z,135
2018-03-29T15:04:28.090Z,140
2018-03-29T15:05:28.108Z,135
2018-03-29T15:06:43.046Z,105